sensor_id;sensor_type;location;lat;lon;timestamp;temperature;humidity
18147;DHT22;9199;48.832;9.182;2023-06-19T00:01:57;24.10;59.60
18147;DHT22;9199;48.832;9.182;2023-06-19T00:04:24;24.00;60.10
18147;DHT22;9199;48.832;9.182;2023-06-19T00:06:52;23.90;60.30
18147;DHT22;9199;48.832;9.182;2023-06-19T00:09:20;23.80;60.30
18147;DHT22;9199;48.832;9.182;2023-06-19T00:11:47;23.80;60.90
18147;DHT22;9199;48.832;9.182;2023-06-19T00:14:13;23.70;61.10
18147;DHT22;9199;48.832;9.182;2023-06-19T00:16:40;23.70;61.30
18147;DHT22;9199;48.832;9.182;2023-06-19T00:19:07;23.60;62.00
18147;DHT22;9199;48.832;9.182;2023-06-19T00:21:34;23.50;61.60
18147;DHT22;9199;48.832;9.182;2023-06-19T00:24:00;23.50;61.60
18147;DHT22;9199;48.832;9.182;2023-06-19T00:26:29;23.50;61.30
18147;DHT22;9199;48.832;9.182;2023-06-19T00:28:56;23.50;61.50
18147;DHT22;9199;48.832;9.182;2023-06-19T00:31:23;23.50;61.10
18147;DHT22;9199;48.832;9.182;2023-06-19T00:33:49;23.50;61.80
18147;DHT22;9199;48.832;9.182;2023-06-19T00:36:16;23.40;63.40
18147;DHT22;9199;48.832;9.182;2023-06-19T00:38:45;23.40;64.10
18147;DHT22;9199;48.832;9.182;2023-06-19T00:41:12;23.30;64.60
18147;DHT22;9199;48.832;9.182;2023-06-19T00:43:40;23.30;64.80
18147;DHT22;9199;48.832;9.182;2023-06-19T00:46:07;23.30;64.30
18147;DHT22;9199;48.832;9.182;2023-06-19T00:48:34;23.20;64.70
18147;DHT22;9199;48.832;9.182;2023-06-19T00:51:01;23.20;64.80
18147;DHT22;9199;48.832;9.182;2023-06-19T00:53:28;23.20;65.30
18147;DHT22;9199;48.832;9.182;2023-06-19T00:55:56;23.10;65.40
18147;DHT22;9199;48.832;9.182;2023-06-19T00:58:24;23.10;66.30
18147;DHT22;9199;48.832;9.182;2023-06-19T01:00:52;23.10;67.00
18147;DHT22;9199;48.832;9.182;2023-06-19T01:03:19;23.00;67.90
18147;DHT22;9199;48.832;9.182;2023-06-19T01:05:47;22.90;67.70
18147;DHT22;9199;48.832;9.182;2023-06-19T01:08:28;22.90;66.80
18147;DHT22;9199;48.832;9.182;2023-06-19T01:10:59;22.90;67.00
18147;DHT22;9199;48.832;9.182;2023-06-19T01:13:33;22.90;67.70
18147;DHT22;9199;48.832;9.182;2023-06-19T01:16:03;22.90;65.40
18147;DHT22;9199;48.832;9.182;2023-06-19T01:18:31;23.30;64.50
18147;DHT22;9199;48.832;9.182;2023-06-19T01:21:09;23.50;64.30
18147;DHT22;9199;48.832;9.182;2023-06-19T01:23:37;23.80;63.10
18147;DHT22;9199;48.832;9.182;2023-06-19T01:26:05;23.90;62.80
18147;DHT22;9199;48.832;9.182;2023-06-19T01:28:32;23.90;62.80
18147;DHT22;9199;48.832;9.182;2023-06-19T01:31:00;23.90;63.00
18147;DHT22;9199;48.832;9.182;2023-06-19T01:33:29;23.80;63.20
18147;DHT22;9199;48.832;9.182;2023-06-19T01:35:57;23.80;63.60
18147;DHT22;9199;48.832;9.182;2023-06-19T01:38:25;23.70;64.00
18147;DHT22;9199;48.832;9.182;2023-06-19T01:40:56;23.60;64.40
18147;DHT22;9199;48.832;9.182;2023-06-19T01:43:24;23.50;65.10
18147;DHT22;9199;48.832;9.182;2023-06-19T01:45:52;23.50;65.80
18147;DHT22;9199;48.832;9.182;2023-06-19T01:48:19;23.40;66.40
18147;DHT22;9199;48.832;9.182;2023-06-19T01:50:46;23.40;66.70
18147;DHT22;9199;48.832;9.182;2023-06-19T01:53:14;23.40;67.20
18147;DHT22;9199;48.832;9.182;2023-06-19T01:55:41;23.30;67.50
18147;DHT22;9199;48.832;9.182;2023-06-19T01:58:09;23.30;67.80
18147;DHT22;9199;48.832;9.182;2023-06-19T02:00:36;23.30;68.00
18147;DHT22;9199;48.832;9.182;2023-06-19T02:03:03;23.30;68.80
18147;DHT22;9199;48.832;9.182;2023-06-19T02:05:30;23.30;69.50
18147;DHT22;9199;48.832;9.182;2023-06-19T02:07:56;23.30;69.90
18147;DHT22;9199;48.832;9.182;2023-06-19T02:10:23;23.30;70.40
18147;DHT22;9199;48.832;9.182;2023-06-19T02:12:50;23.20;70.80
18147;DHT22;9199;48.832;9.182;2023-06-19T02:15:18;23.20;71.30
18147;DHT22;9199;48.832;9.182;2023-06-19T02:17:45;23.10;71.60
18147;DHT22;9199;48.832;9.182;2023-06-19T02:20:12;23.10;72.00
18147;DHT22;9199;48.832;9.182;2023-06-19T02:22:39;23.10;72.50
18147;DHT22;9199;48.832;9.182;2023-06-19T02:25:06;23.00;72.80
18147;DHT22;9199;48.832;9.182;2023-06-19T02:27:33;23.00;73.10
18147;DHT22;9199;48.832;9.182;2023-06-19T02:30:00;22.90;73.30
18147;DHT22;9199;48.832;9.182;2023-06-19T02:32:28;22.90;73.60
18147;DHT22;9199;48.832;9.182;2023-06-19T02:34:54;22.90;73.90
18147;DHT22;9199;48.832;9.182;2023-06-19T02:37:21;22.90;74.10
18147;DHT22;9199;48.832;9.182;2023-06-19T02:39:48;22.90;74.30
18147;DHT22;9199;48.832;9.182;2023-06-19T02:42:14;22.80;74.40
18147;DHT22;9199;48.832;9.182;2023-06-19T02:44:41;22.80;74.60
18147;DHT22;9199;48.832;9.182;2023-06-19T02:47:08;22.80;74.80
18147;DHT22;9199;48.832;9.182;2023-06-19T02:49:36;22.80;75.20
18147;DHT22;9199;48.832;9.182;2023-06-19T02:52:04;22.80;75.40
18147;DHT22;9199;48.832;9.182;2023-06-19T02:54:31;22.80;75.60
18147;DHT22;9199;48.832;9.182;2023-06-19T02:56:58;22.80;76.00
18147;DHT22;9199;48.832;9.182;2023-06-19T02:59:25;22.80;76.20
18147;DHT22;9199;48.832;9.182;2023-06-19T03:01:52;22.70;76.40
18147;DHT22;9199;48.832;9.182;2023-06-19T03:04:18;22.70;76.70
18147;DHT22;9199;48.832;9.182;2023-06-19T03:06:47;22.70;77.00
18147;DHT22;9199;48.832;9.182;2023-06-19T03:09:13;22.70;77.60
18147;DHT22;9199;48.832;9.182;2023-06-19T03:11:40;22.70;77.70
18147;DHT22;9199;48.832;9.182;2023-06-19T03:14:07;22.70;78.00
18147;DHT22;9199;48.832;9.182;2023-06-19T03:16:35;22.70;78.20
18147;DHT22;9199;48.832;9.182;2023-06-19T03:19:02;22.70;78.20
18147;DHT22;9199;48.832;9.182;2023-06-19T03:21:29;22.70;78.60
18147;DHT22;9199;48.832;9.182;2023-06-19T03:23:57;22.70;78.90
18147;DHT22;9199;48.832;9.182;2023-06-19T03:26:24;22.70;78.70
18147;DHT22;9199;48.832;9.182;2023-06-19T03:28:51;22.70;78.60
18147;DHT22;9199;48.832;9.182;2023-06-19T03:31:18;22.70;78.60
18147;DHT22;9199;48.832;9.182;2023-06-19T03:33:45;22.70;78.70
18147;DHT22;9199;48.832;9.182;2023-06-19T03:36:11;22.80;79.00
18147;DHT22;9199;48.832;9.182;2023-06-19T03:38:38;22.80;79.10
18147;DHT22;9199;48.832;9.182;2023-06-19T03:41:06;22.80;79.50
18147;DHT22;9199;48.832;9.182;2023-06-19T03:43:33;22.80;79.70
18147;DHT22;9199;48.832;9.182;2023-06-19T03:46:00;22.80;79.60
18147;DHT22;9199;48.832;9.182;2023-06-19T03:48:27;22.80;79.90
18147;DHT22;9199;48.832;9.182;2023-06-19T03:50:54;22.80;80.20
18147;DHT22;9199;48.832;9.182;2023-06-19T03:53:20;22.70;80.60
18147;DHT22;9199;48.832;9.182;2023-06-19T03:55:47;22.70;80.80
18147;DHT22;9199;48.832;9.182;2023-06-19T03:58:15;22.70;81.40
18147;DHT22;9199;48.832;9.182;2023-06-19T04:00:42;22.60;82.00
18147;DHT22;9199;48.832;9.182;2023-06-19T04:03:09;22.60;82.20
18147;DHT22;9199;48.832;9.182;2023-06-19T04:05:35;22.60;82.60
18147;DHT22;9199;48.832;9.182;2023-06-19T04:08:02;22.60;83.00
18147;DHT22;9199;48.832;9.182;2023-06-19T04:10:29;22.50;83.50
18147;DHT22;9199;48.832;9.182;2023-06-19T04:12:56;22.50;83.90
18147;DHT22;9199;48.832;9.182;2023-06-19T04:15:24;22.40;84.00
18147;DHT22;9199;48.832;9.182;2023-06-19T04:17:51;22.40;84.30
18147;DHT22;9199;48.832;9.182;2023-06-19T04:20:18;22.40;84.10
18147;DHT22;9199;48.832;9.182;2023-06-19T04:22:45;22.40;84.40
18147;DHT22;9199;48.832;9.182;2023-06-19T04:25:12;22.40;84.80
18147;DHT22;9199;48.832;9.182;2023-06-19T04:27:39;22.40;85.50
18147;DHT22;9199;48.832;9.182;2023-06-19T04:30:06;22.40;85.80
18147;DHT22;9199;48.832;9.182;2023-06-19T04:32:35;22.40;86.10
18147;DHT22;9199;48.832;9.182;2023-06-19T04:35:02;22.40;86.70
18147;DHT22;9199;48.832;9.182;2023-06-19T04:37:29;22.40;87.30
18147;DHT22;9199;48.832;9.182;2023-06-19T04:39:56;22.40;87.50
18147;DHT22;9199;48.832;9.182;2023-06-19T04:42:24;22.30;87.80
18147;DHT22;9199;48.832;9.182;2023-06-19T04:44:52;22.30;88.60
18147;DHT22;9199;48.832;9.182;2023-06-19T04:47:22;22.40;88.90
18147;DHT22;9199;48.832;9.182;2023-06-19T04:49:50;22.40;89.20
18147;DHT22;9199;48.832;9.182;2023-06-19T04:52:17;22.40;89.60
18147;DHT22;9199;48.832;9.182;2023-06-19T04:54:44;22.50;89.90
18147;DHT22;9199;48.832;9.182;2023-06-19T04:57:13;22.60;90.00
18147;DHT22;9199;48.832;9.182;2023-06-19T04:59:42;22.70;90.10
18147;DHT22;9199;48.832;9.182;2023-06-19T05:02:09;22.80;90.10
18147;DHT22;9199;48.832;9.182;2023-06-19T05:04:36;22.90;90.10
18147;DHT22;9199;48.832;9.182;2023-06-19T05:07:04;22.90;90.20
18147;DHT22;9199;48.832;9.182;2023-06-19T05:09:31;23.00;90.20
18147;DHT22;9199;48.832;9.182;2023-06-19T05:11:58;23.10;90.10
18147;DHT22;9199;48.832;9.182;2023-06-19T05:14:25;23.30;90.10
18147;DHT22;9199;48.832;9.182;2023-06-19T05:16:51;23.40;90.10
18147;DHT22;9199;48.832;9.182;2023-06-19T05:19:18;23.40;90.10
18147;DHT22;9199;48.832;9.182;2023-06-19T05:21:45;23.50;90.10
18147;DHT22;9199;48.832;9.182;2023-06-19T05:24:13;23.60;90.00
18147;DHT22;9199;48.832;9.182;2023-06-19T05:26:40;23.50;90.20
18147;DHT22;9199;48.832;9.182;2023-06-19T05:29:07;23.50;90.30
18147;DHT22;9199;48.832;9.182;2023-06-19T05:31:34;23.50;90.60
18147;DHT22;9199;48.832;9.182;2023-06-19T05:34:01;23.50;90.40
18147;DHT22;9199;48.832;9.182;2023-06-19T05:36:27;23.50;90.60
18147;DHT22;9199;48.832;9.182;2023-06-19T05:38:54;23.50;90.80
18147;DHT22;9199;48.832;9.182;2023-06-19T05:41:22;23.50;90.90
18147;DHT22;9199;48.832;9.182;2023-06-19T05:43:49;23.50;90.90
18147;DHT22;9199;48.832;9.182;2023-06-19T05:46:15;23.50;91.00
18147;DHT22;9199;48.832;9.182;2023-06-19T05:48:42;23.60;91.10
18147;DHT22;9199;48.832;9.182;2023-06-19T05:51:09;23.60;90.80
18147;DHT22;9199;48.832;9.182;2023-06-19T05:53:35;23.80;90.80
18147;DHT22;9199;48.832;9.182;2023-06-19T05:56:04;23.80;90.90
18147;DHT22;9199;48.832;9.182;2023-06-19T05:58:32;23.90;90.70
18147;DHT22;9199;48.832;9.182;2023-06-19T06:00:59;24.10;90.70
18147;DHT22;9199;48.832;9.182;2023-06-19T06:03:26;24.20;90.60
18147;DHT22;9199;48.832;9.182;2023-06-19T06:05:53;24.30;90.50
18147;DHT22;9199;48.832;9.182;2023-06-19T06:08:20;24.30;90.40
18147;DHT22;9199;48.832;9.182;2023-06-19T06:10:46;24.30;90.40
18147;DHT22;9199;48.832;9.182;2023-06-19T06:13:13;24.40;90.50
18147;DHT22;9199;48.832;9.182;2023-06-19T06:15:41;24.40;90.40
18147;DHT22;9199;48.832;9.182;2023-06-19T06:18:08;24.60;90.10
18147;DHT22;9199;48.832;9.182;2023-06-19T06:20:35;24.60;90.10
18147;DHT22;9199;48.832;9.182;2023-06-19T06:23:01;24.60;90.00
18147;DHT22;9199;48.832;9.182;2023-06-19T06:25:29;24.80;89.10
18147;DHT22;9199;48.832;9.182;2023-06-19T06:27:55;24.80;88.40
18147;DHT22;9199;48.832;9.182;2023-06-19T06:30:22;24.90;88.70
18147;DHT22;9199;48.832;9.182;2023-06-19T06:32:50;25.10;88.40
18147;DHT22;9199;48.832;9.182;2023-06-19T06:35:17;25.20;88.30
18147;DHT22;9199;48.832;9.182;2023-06-19T06:37:44;25.10;88.20
18147;DHT22;9199;48.832;9.182;2023-06-19T06:40:12;25.00;89.10
18147;DHT22;9199;48.832;9.182;2023-06-19T06:42:39;25.10;88.80
18147;DHT22;9199;48.832;9.182;2023-06-19T06:45:06;25.30;88.70
18147;DHT22;9199;48.832;9.182;2023-06-19T06:47:34;25.40;87.30
18147;DHT22;9199;48.832;9.182;2023-06-19T06:50:02;25.70;86.90
18147;DHT22;9199;48.832;9.182;2023-06-19T06:52:29;26.00;85.40
18147;DHT22;9199;48.832;9.182;2023-06-19T06:54:56;26.10;84.70
18147;DHT22;9199;48.832;9.182;2023-06-19T06:57:23;26.20;84.70
18147;DHT22;9199;48.832;9.182;2023-06-19T06:59:50;26.40;84.30
18147;DHT22;9199;48.832;9.182;2023-06-19T07:02:16;26.60;82.70
18147;DHT22;9199;48.832;9.182;2023-06-19T07:04:43;26.70;82.40
18147;DHT22;9199;48.832;9.182;2023-06-19T07:07:11;26.60;82.30
18147;DHT22;9199;48.832;9.182;2023-06-19T07:09:38;26.30;82.00
18147;DHT22;9199;48.832;9.182;2023-06-19T07:12:05;26.20;82.10
18147;DHT22;9199;48.832;9.182;2023-06-19T07:14:32;26.00;82.60
18147;DHT22;9199;48.832;9.182;2023-06-19T07:16:59;25.90;82.80
18147;DHT22;9199;48.832;9.182;2023-06-19T07:19:26;25.90;83.00
18147;DHT22;9199;48.832;9.182;2023-06-19T07:21:53;25.80;83.10
18147;DHT22;9199;48.832;9.182;2023-06-19T07:24:21;25.90;83.40
18147;DHT22;9199;48.832;9.182;2023-06-19T07:26:49;25.90;82.60
18147;DHT22;9199;48.832;9.182;2023-06-19T07:29:16;26.10;82.50
18147;DHT22;9199;48.832;9.182;2023-06-19T07:31:43;26.20;82.20
18147;DHT22;9199;48.832;9.182;2023-06-19T07:34:09;26.00;81.40
18147;DHT22;9199;48.832;9.182;2023-06-19T07:36:36;25.90;82.40
18147;DHT22;9199;48.832;9.182;2023-06-19T07:39:03;26.00;82.70
18147;DHT22;9199;48.832;9.182;2023-06-19T07:41:31;25.90;82.50
18147;DHT22;9199;48.832;9.182;2023-06-19T07:43:57;25.80;83.30
18147;DHT22;9199;48.832;9.182;2023-06-19T07:46:24;25.80;83.50
18147;DHT22;9199;48.832;9.182;2023-06-19T07:48:51;26.00;83.50
18147;DHT22;9199;48.832;9.182;2023-06-19T07:51:18;26.30;82.60
18147;DHT22;9199;48.832;9.182;2023-06-19T07:53:44;26.30;82.40
18147;DHT22;9199;48.832;9.182;2023-06-19T07:56:11;26.30;82.40
18147;DHT22;9199;48.832;9.182;2023-06-19T07:58:39;26.60;81.50
18147;DHT22;9199;48.832;9.182;2023-06-19T08:01:06;26.80;79.80
18147;DHT22;9199;48.832;9.182;2023-06-19T08:03:33;26.70;79.30
18147;DHT22;9199;48.832;9.182;2023-06-19T08:06:00;26.40;80.00
18147;DHT22;9199;48.832;9.182;2023-06-19T08:08:26;26.20;80.80
18147;DHT22;9199;48.832;9.182;2023-06-19T08:10:53;26.00;79.90
18147;DHT22;9199;48.832;9.182;2023-06-19T08:13:20;25.80;79.80
18147;DHT22;9199;48.832;9.182;2023-06-19T08:15:48;25.90;80.10
18147;DHT22;9199;48.832;9.182;2023-06-19T08:18:14;26.30;79.60
18147;DHT22;9199;48.832;9.182;2023-06-19T08:20:41;26.60;78.80
18147;DHT22;9199;48.832;9.182;2023-06-19T08:23:08;26.90;78.20
18147;DHT22;9199;48.832;9.182;2023-06-19T08:25:34;27.20;77.70
18147;DHT22;9199;48.832;9.182;2023-06-19T08:28:01;27.30;77.20
18147;DHT22;9199;48.832;9.182;2023-06-19T08:30:28;27.50;76.00
18147;DHT22;9199;48.832;9.182;2023-06-19T08:32:56;27.80;75.20
18147;DHT22;9199;48.832;9.182;2023-06-19T08:35:22;27.90;75.30
18147;DHT22;9199;48.832;9.182;2023-06-19T08:37:49;27.80;75.30
18147;DHT22;9199;48.832;9.182;2023-06-19T08:40:16;28.20;74.90
18147;DHT22;9199;48.832;9.182;2023-06-19T08:42:43;28.80;73.60
18147;DHT22;9199;48.832;9.182;2023-06-19T08:45:11;28.90;72.00
18147;DHT22;9199;48.832;9.182;2023-06-19T08:47:37;28.60;71.30
18147;DHT22;9199;48.832;9.182;2023-06-19T08:50:07;28.20;72.90
18147;DHT22;9199;48.832;9.182;2023-06-19T08:52:34;27.90;73.20
18147;DHT22;9199;48.832;9.182;2023-06-19T08:55:00;27.90;74.20
18147;DHT22;9199;48.832;9.182;2023-06-19T08:57:34;28.00;73.70
18147;DHT22;9199;48.832;9.182;2023-06-19T09:00:01;28.30;72.60
18147;DHT22;9199;48.832;9.182;2023-06-19T09:02:37;28.60;72.20
18147;DHT22;9199;48.832;9.182;2023-06-19T09:05:13;28.80;71.80
18147;DHT22;9199;48.832;9.182;2023-06-19T09:07:40;29.10;71.00
18147;DHT22;9199;48.832;9.182;2023-06-19T09:10:16;29.50;71.60
18147;DHT22;9199;48.832;9.182;2023-06-19T09:12:43;30.00;70.50
18147;DHT22;9199;48.832;9.182;2023-06-19T09:15:13;30.40;69.60
18147;DHT22;9199;48.832;9.182;2023-06-19T09:17:40;30.70;66.60
18147;DHT22;9199;48.832;9.182;2023-06-19T09:20:09;31.00;65.80
18147;DHT22;9199;48.832;9.182;2023-06-19T09:22:38;31.20;65.30
18147;DHT22;9199;48.832;9.182;2023-06-19T09:25:06;31.30;66.50
18147;DHT22;9199;48.832;9.182;2023-06-19T09:27:35;31.40;64.90
18147;DHT22;9199;48.832;9.182;2023-06-19T09:30:04;31.10;65.70
18147;DHT22;9199;48.832;9.182;2023-06-19T09:32:31;31.10;65.80
18147;DHT22;9199;48.832;9.182;2023-06-19T09:34:58;31.20;66.50
18147;DHT22;9199;48.832;9.182;2023-06-19T09:37:26;31.60;63.80
18147;DHT22;9199;48.832;9.182;2023-06-19T09:39:56;31.90;63.50
18147;DHT22;9199;48.832;9.182;2023-06-19T09:42:27;32.40;61.90
18147;DHT22;9199;48.832;9.182;2023-06-19T09:44:58;32.70;62.00
18147;DHT22;9199;48.832;9.182;2023-06-19T09:47:25;32.90;61.00
18147;DHT22;9199;48.832;9.182;2023-06-19T09:49:56;33.10;60.50
18147;DHT22;9199;48.832;9.182;2023-06-19T09:52:23;33.40;59.80
18147;DHT22;9199;48.832;9.182;2023-06-19T09:54:51;33.60;58.90
18147;DHT22;9199;48.832;9.182;2023-06-19T09:57:19;33.90;58.00
18147;DHT22;9199;48.832;9.182;2023-06-19T09:59:47;33.90;57.00
18147;DHT22;9199;48.832;9.182;2023-06-19T10:02:15;33.40;58.30
18147;DHT22;9199;48.832;9.182;2023-06-19T10:04:43;33.10;59.70
18147;DHT22;9199;48.832;9.182;2023-06-19T10:07:19;33.00;60.10
18147;DHT22;9199;48.832;9.182;2023-06-19T10:09:56;33.70;58.90
18147;DHT22;9199;48.832;9.182;2023-06-19T10:12:38;34.20;57.40
18147;DHT22;9199;48.832;9.182;2023-06-19T10:15:12;34.30;57.30
18147;DHT22;9199;48.832;9.182;2023-06-19T10:17:48;34.30;57.80
18147;DHT22;9199;48.832;9.182;2023-06-19T10:20:24;34.80;57.30
18147;DHT22;9199;48.832;9.182;2023-06-19T10:22:52;35.20;55.70
18147;DHT22;9199;48.832;9.182;2023-06-19T10:25:22;35.80;55.40
18147;DHT22;9199;48.832;9.182;2023-06-19T10:27:50;36.70;52.50
18147;DHT22;9199;48.832;9.182;2023-06-19T10:30:18;37.00;51.50
18147;DHT22;9199;48.832;9.182;2023-06-19T10:32:45;36.70;51.50
18147;DHT22;9199;48.832;9.182;2023-06-19T10:35:13;36.50;52.50
18147;DHT22;9199;48.832;9.182;2023-06-19T10:37:40;36.20;53.60
18147;DHT22;9199;48.832;9.182;2023-06-19T10:40:08;36.50;52.00
18147;DHT22;9199;48.832;9.182;2023-06-19T10:42:36;36.40;52.50
18147;DHT22;9199;48.832;9.182;2023-06-19T10:45:05;36.00;52.90
18147;DHT22;9199;48.832;9.182;2023-06-19T10:47:33;36.20;52.90
18147;DHT22;9199;48.832;9.182;2023-06-19T10:49:59;36.10;52.80
18147;DHT22;9199;48.832;9.182;2023-06-19T10:52:28;35.60;52.40
18147;DHT22;9199;48.832;9.182;2023-06-19T10:54:56;35.40;53.10
18147;DHT22;9199;48.832;9.182;2023-06-19T10:57:27;35.60;53.60
18147;DHT22;9199;48.832;9.182;2023-06-19T10:59:54;35.50;52.10
18147;DHT22;9199;48.832;9.182;2023-06-19T11:02:23;35.20;52.90
18147;DHT22;9199;48.832;9.182;2023-06-19T11:04:54;34.80;53.00
18147;DHT22;9199;48.832;9.182;2023-06-19T11:07:22;33.90;54.80
18147;DHT22;9199;48.832;9.182;2023-06-19T11:09:49;33.90;55.30
18147;DHT22;9199;48.832;9.182;2023-06-19T11:12:19;34.10;54.50
18147;DHT22;9199;48.832;9.182;2023-06-19T11:14:47;34.60;54.60
18147;DHT22;9199;48.832;9.182;2023-06-19T11:17:14;34.70;54.20
18147;DHT22;9199;48.832;9.182;2023-06-19T11:19:42;34.70;53.90
18147;DHT22;9199;48.832;9.182;2023-06-19T11:22:10;34.90;53.70
18147;DHT22;9199;48.832;9.182;2023-06-19T11:24:37;35.50;52.30
18147;DHT22;9199;48.832;9.182;2023-06-19T11:27:04;36.10;51.90
18147;DHT22;9199;48.832;9.182;2023-06-19T11:29:31;36.70;50.60
18147;DHT22;9199;48.832;9.182;2023-06-19T11:32:05;37.20;49.70
18147;DHT22;9199;48.832;9.182;2023-06-19T11:34:33;37.70;49.00
18147;DHT22;9199;48.832;9.182;2023-06-19T11:37:11;37.90;47.50
18147;DHT22;9199;48.832;9.182;2023-06-19T11:39:37;37.70;49.00
18147;DHT22;9199;48.832;9.182;2023-06-19T11:42:05;37.90;47.80
18147;DHT22;9199;48.832;9.182;2023-06-19T11:44:32;37.30;49.20
18147;DHT22;9199;48.832;9.182;2023-06-19T11:47:00;37.20;49.10
18147;DHT22;9199;48.832;9.182;2023-06-19T11:49:27;37.50;49.40
18147;DHT22;9199;48.832;9.182;2023-06-19T11:51:57;37.50;48.30
18147;DHT22;9199;48.832;9.182;2023-06-19T11:54:26;37.50;48.60
18147;DHT22;9199;48.832;9.182;2023-06-19T11:56:52;36.70;48.70
18147;DHT22;9199;48.832;9.182;2023-06-19T11:59:19;35.70;50.50
18147;DHT22;9199;48.832;9.182;2023-06-19T12:01:46;35.80;50.70
18147;DHT22;9199;48.832;9.182;2023-06-19T12:04:13;35.90;49.60
18147;DHT22;9199;48.832;9.182;2023-06-19T12:06:40;36.00;49.80
18147;DHT22;9199;48.832;9.182;2023-06-19T12:09:07;35.40;50.10
18147;DHT22;9199;48.832;9.182;2023-06-19T12:11:36;35.20;51.50
18147;DHT22;9199;48.832;9.182;2023-06-19T12:14:03;35.40;51.10
18147;DHT22;9199;48.832;9.182;2023-06-19T12:16:29;35.00;51.30
18147;DHT22;9199;48.832;9.182;2023-06-19T12:18:56;34.60;51.80
18147;DHT22;9199;48.832;9.182;2023-06-19T12:21:23;34.20;52.40
18147;DHT22;9199;48.832;9.182;2023-06-19T12:23:50;34.10;53.00
18147;DHT22;9199;48.832;9.182;2023-06-19T12:26:17;34.80;51.90
18147;DHT22;9199;48.832;9.182;2023-06-19T12:28:45;35.60;50.70
18147;DHT22;9199;48.832;9.182;2023-06-19T12:31:12;36.00;49.90
18147;DHT22;9199;48.832;9.182;2023-06-19T12:33:38;36.30;49.00
18147;DHT22;9199;48.832;9.182;2023-06-19T12:36:10;36.00;49.70
18147;DHT22;9199;48.832;9.182;2023-06-19T12:38:38;35.60;49.80
18147;DHT22;9199;48.832;9.182;2023-06-19T12:41:05;35.60;49.90
18147;DHT22;9199;48.832;9.182;2023-06-19T12:43:32;36.60;49.30
18147;DHT22;9199;48.832;9.182;2023-06-19T12:46:01;36.90;48.20
18147;DHT22;9199;48.832;9.182;2023-06-19T12:48:28;36.80;49.20
18147;DHT22;9199;48.832;9.182;2023-06-19T12:50:55;37.50;47.60
18147;DHT22;9199;48.832;9.182;2023-06-19T12:53:22;38.10;47.40
18147;DHT22;9199;48.832;9.182;2023-06-19T12:55:52;38.70;46.70
18147;DHT22;9199;48.832;9.182;2023-06-19T12:58:19;39.10;45.60
18147;DHT22;9199;48.832;9.182;2023-06-19T13:00:46;39.50;44.70
18147;DHT22;9199;48.832;9.182;2023-06-19T13:03:14;40.40;43.50
18147;DHT22;9199;48.832;9.182;2023-06-19T13:05:41;40.00;43.80
18147;DHT22;9199;48.832;9.182;2023-06-19T13:08:07;39.20;45.00
18147;DHT22;9199;48.832;9.182;2023-06-19T13:10:34;38.80;45.40
18147;DHT22;9199;48.832;9.182;2023-06-19T13:13:01;38.80;45.70
18147;DHT22;9199;48.832;9.182;2023-06-19T13:15:28;38.80;44.40
18147;DHT22;9199;48.832;9.182;2023-06-19T13:17:54;38.60;45.50
18147;DHT22;9199;48.832;9.182;2023-06-19T13:20:22;38.80;43.50
18147;DHT22;9199;48.832;9.182;2023-06-19T13:22:49;39.30;42.70
18147;DHT22;9199;48.832;9.182;2023-06-19T13:25:16;38.60;44.50
18147;DHT22;9199;48.832;9.182;2023-06-19T13:27:43;38.40;45.30
18147;DHT22;9199;48.832;9.182;2023-06-19T13:30:11;38.40;44.80
18147;DHT22;9199;48.832;9.182;2023-06-19T13:32:38;38.10;46.00
18147;DHT22;9199;48.832;9.182;2023-06-19T13:35:05;38.30;45.30
18147;DHT22;9199;48.832;9.182;2023-06-19T13:37:35;38.30;44.60
18147;DHT22;9199;48.832;9.182;2023-06-19T13:40:06;38.20;44.30
18147;DHT22;9199;48.832;9.182;2023-06-19T13:42:32;37.30;45.40
18147;DHT22;9199;48.832;9.182;2023-06-19T13:45:00;36.10;47.60
18147;DHT22;9199;48.832;9.182;2023-06-19T13:47:27;35.70;48.80
18147;DHT22;9199;48.832;9.182;2023-06-19T13:49:54;35.30;48.30
18147;DHT22;9199;48.832;9.182;2023-06-19T13:52:20;35.20;50.00
18147;DHT22;9199;48.832;9.182;2023-06-19T13:54:49;34.90;51.00
18147;DHT22;9199;48.832;9.182;2023-06-19T13:57:16;34.90;49.30
18147;DHT22;9199;48.832;9.182;2023-06-19T13:59:43;34.80;50.40
18147;DHT22;9199;48.832;9.182;2023-06-19T14:02:09;35.20;49.20
18147;DHT22;9199;48.832;9.182;2023-06-19T14:04:36;35.60;49.30
18147;DHT22;9199;48.832;9.182;2023-06-19T14:07:04;35.80;49.00
18147;DHT22;9199;48.832;9.182;2023-06-19T14:09:31;36.20;48.10
18147;DHT22;9199;48.832;9.182;2023-06-19T14:11:59;36.20;47.70
18147;DHT22;9199;48.832;9.182;2023-06-19T14:14:25;36.30;47.80
18147;DHT22;9199;48.832;9.182;2023-06-19T14:16:52;36.10;48.00
18147;DHT22;9199;48.832;9.182;2023-06-19T14:19:19;35.60;48.60
18147;DHT22;9199;48.832;9.182;2023-06-19T14:21:46;35.00;49.20
18147;DHT22;9199;48.832;9.182;2023-06-19T14:24:12;34.80;49.70
18147;DHT22;9199;48.832;9.182;2023-06-19T14:26:39;35.10;49.10
18147;DHT22;9199;48.832;9.182;2023-06-19T14:29:07;35.40;49.10
18147;DHT22;9199;48.832;9.182;2023-06-19T14:31:34;35.70;48.60
18147;DHT22;9199;48.832;9.182;2023-06-19T14:34:01;35.60;48.40
18147;DHT22;9199;48.832;9.182;2023-06-19T14:36:28;35.60;49.10
18147;DHT22;9199;48.832;9.182;2023-06-19T14:38:54;36.10;47.90
18147;DHT22;9199;48.832;9.182;2023-06-19T14:41:21;35.90;48.50
18147;DHT22;9199;48.832;9.182;2023-06-19T14:43:48;36.30;48.00
18147;DHT22;9199;48.832;9.182;2023-06-19T14:46:16;36.80;47.20
18147;DHT22;9199;48.832;9.182;2023-06-19T14:48:42;36.50;46.90
18147;DHT22;9199;48.832;9.182;2023-06-19T14:51:09;36.00;47.80
18147;DHT22;9199;48.832;9.182;2023-06-19T14:53:37;36.20;47.80
18147;DHT22;9199;48.832;9.182;2023-06-19T14:56:04;36.40;47.50
18147;DHT22;9199;48.832;9.182;2023-06-19T14:58:30;36.90;46.80
18147;DHT22;9199;48.832;9.182;2023-06-19T15:00:57;37.30;45.00
18147;DHT22;9199;48.832;9.182;2023-06-19T15:03:25;37.40;44.90
18147;DHT22;9199;48.832;9.182;2023-06-19T15:05:53;37.00;45.40
18147;DHT22;9199;48.832;9.182;2023-06-19T15:08:20;36.60;46.50
18147;DHT22;9199;48.832;9.182;2023-06-19T15:10:47;36.80;46.50
18147;DHT22;9199;48.832;9.182;2023-06-19T15:13:14;37.10;45.80
18147;DHT22;9199;48.832;9.182;2023-06-19T15:15:42;37.10;45.40
18147;DHT22;9199;48.832;9.182;2023-06-19T15:18:09;36.40;46.80
18147;DHT22;9199;48.832;9.182;2023-06-19T15:20:37;36.10;46.90
18147;DHT22;9199;48.832;9.182;2023-06-19T15:23:05;35.80;47.40
18147;DHT22;9199;48.832;9.182;2023-06-19T15:25:32;35.40;48.30
18147;DHT22;9199;48.832;9.182;2023-06-19T15:27:59;34.90;49.30
18147;DHT22;9199;48.832;9.182;2023-06-19T15:30:25;34.50;49.80
18147;DHT22;9199;48.832;9.182;2023-06-19T15:32:52;34.40;49.60
18147;DHT22;9199;48.832;9.182;2023-06-19T15:35:19;33.90;50.20
18147;DHT22;9199;48.832;9.182;2023-06-19T15:37:47;33.50;50.90
18147;DHT22;9199;48.832;9.182;2023-06-19T15:40:14;33.30;52.10
18147;DHT22;9199;48.832;9.182;2023-06-19T15:42:40;33.20;51.10
18147;DHT22;9199;48.832;9.182;2023-06-19T15:45:08;32.90;52.30
18147;DHT22;9199;48.832;9.182;2023-06-19T15:47:36;32.70;52.50